sensor_id;sensor_type;location;lat;lon;timestamp;P1;durP1;ratioP1;P2;durP2;ratioP2
61638;SDS011;47544;52.484;4.658;2022-12-18T07:00:38;73.90;;;29.80;;
61638;SDS011;47544;52.484;4.658;2022-12-18T07:01:02;72.53;;;30.58;;
61638;SDS011;47544;52.484;4.658;2022-12-18T07:01:55;76.75;;;31.13;;
61638;SDS011;47544;52.484;4.658;2022-12-18T07:02:15;77.55;;;31.17;;
61638;SDS011;47544;52.484;4.658;2022-12-18T07:04:30;71.75;;;30.25;;
61638;SDS011;47544;52.484;4.658;2022-12-18T07:05:00;78.55;;;31.23;;
61638;SDS011;47544;52.484;4.658;2022-12-18T07:05:49;79.53;;;30.38;;
61638;SDS011;47544;52.484;4.658;2022-12-18T07:07:22;83.13;;;31.58;;
61638;SDS011;47544;52.484;4.658;2022-12-18T07:07:37;81.40;;;31.23;;
61638;SDS011;47544;52.484;4.658;2022-12-18T07:07:58;75.95;;;30.55;;
61638;SDS011;47544;52.484;4.658;2022-12-18T07:10:39;76.03;;;29.85;;
61638;SDS011;47544;52.484;4.658;2022-12-18T07:11:47;82.35;;;32.13;;
61638;SDS011;47544;52.484;4.658;2022-12-18T07:12:41;77.30;;;30.85;;
61638;SDS011;47544;52.484;4.658;2022-12-18T07:14:22;79.40;;;30.98;;
61638;SDS011;47544;52.484;4.658;2022-12-18T07:25:34;80.07;;;25.98;;
61638;SDS011;47544;52.484;4.658;2022-12-18T07:26:00;85.43;;;30.30;;
61638;SDS011;47544;52.484;4.658;2022-12-18T07:26:13;89.15;;;31.70;;
61638;SDS011;47544;52.484;4.658;2022-12-18T07:26:25;91.20;;;32.78;;
61638;SDS011;47544;52.484;4.658;2022-12-18T07:27:53;86.47;;;30.83;;
61638;SDS011;47544;52.484;4.658;2022-12-18T07:28:33;89.47;;;30.83;;
61638;SDS011;47544;52.484;4.658;2022-12-18T07:28:35;89.07;;;32.60;;
61638;SDS011;47544;52.484;4.658;2022-12-18T07:29:47;84.47;;;30.15;;
61638;SDS011;47544;52.484;4.658;2022-12-18T07:30:02;85.80;;;30.13;;
61638;SDS011;47544;52.484;4.658;2022-12-18T07:30:15;84.78;;;30.08;;
61638;SDS011;47544;52.484;4.658;2022-12-18T07:30:29;88.90;;;31.52;;
61638;SDS011;47544;52.484;4.658;2022-12-18T07:30:40;92.07;;;32.38;;
61638;SDS011;47544;52.484;4.658;2022-12-18T07:30:54;94.28;;;32.00;;
61638;SDS011;47544;52.484;4.658;2022-12-18T07:31:18;95.25;;;31.80;;
61638;SDS011;47544;52.484;4.658;2022-12-18T07:32:25;96.82;;;33.33;;
61638;SDS011;47544;52.484;4.658;2022-12-18T07:32:44;98.60;;;33.63;;
61638;SDS011;47544;52.484;4.658;2022-12-18T07:33:04;104.68;;;33.00;;
61638;SDS011;47544;52.484;4.658;2022-12-18T07:33:18;95.47;;;32.92;;
61638;SDS011;47544;52.484;4.658;2022-12-18T07:33:32;94.95;;;32.47;;
61638;SDS011;47544;52.484;4.658;2022-12-18T07:34:00;89.75;;;31.33;;
61638;SDS011;47544;52.484;4.658;2022-12-18T07:34:16;89.28;;;31.10;;
61638;SDS011;47544;52.484;4.658;2022-12-18T07:34:31;90.75;;;30.85;;
61638;SDS011;47544;52.484;4.658;2022-12-18T07:34:45;97.78;;;32.35;;
61638;SDS011;47544;52.484;4.658;2022-12-18T07:35:02;100.43;;;33.45;;
61638;SDS011;47544;52.484;4.658;2022-12-18T07:35:19;94.53;;;31.88;;
61638;SDS011;47544;52.484;4.658;2022-12-18T07:36:08;99.32;;;32.45;;
61638;SDS011;47544;52.484;4.658;2022-12-18T07:36:23;99.43;;;32.03;;
61638;SDS011;47544;52.484;4.658;2022-12-18T07:36:36;99.10;;;31.95;;
61638;SDS011;47544;52.484;4.658;2022-12-18T07:37:11;94.78;;;31.67;;
61638;SDS011;47544;52.484;4.658;2022-12-18T07:37:26;92.07;;;30.75;;
61638;SDS011;47544;52.484;4.658;2022-12-18T07:37:47;94.50;;;31.33;;
61638;SDS011;47544;52.484;4.658;2022-12-18T07:38:29;95.80;;;31.83;;
61638;SDS011;47544;52.484;4.658;2022-12-18T07:39:21;88.65;;;30.77;;
61638;SDS011;47544;52.484;4.658;2022-12-18T07:39:40;90.63;;;31.08;;
61638;SDS011;47544;52.484;4.658;2022-12-18T07:39:54;93.07;;;31.67;;
61638;SDS011;47544;52.484;4.658;2022-12-18T07:40:17;91.10;;;31.85;;
61638;SDS011;47544;52.484;4.658;2022-12-18T07:40:28;89.43;;;31.67;;
61638;SDS011;47544;52.484;4.658;2022-12-18T07:41:29;89.88;;;30.60;;
61638;SDS011;47544;52.484;4.658;2022-12-18T07:42:26;91.90;;;32.03;;
61638;SDS011;47544;52.484;4.658;2022-12-18T07:44:01;85.43;;;30.92;;
61638;SDS011;47544;52.484;4.658;2022-12-18T07:44:16;88.72;;;31.52;;
61638;SDS011;47544;52.484;4.658;2022-12-18T07:44:36;88.78;;;31.73;;
61638;SDS011;47544;52.484;4.658;2022-12-18T07:45:10;87.95;;;31.75;;
61638;SDS011;47544;52.484;4.658;2022-12-18T07:45:31;90.65;;;30.98;;
61638;SDS011;47544;52.484;4.658;2022-12-18T07:45:54;91.57;;;30.70;;
61638;SDS011;47544;52.484;4.658;2022-12-18T07:46:27;91.85;;;31.00;;
61638;SDS011;47544;52.484;4.658;2022-12-18T07:47:06;90.45;;;32.13;;
61638;SDS011;47544;52.484;4.658;2022-12-18T07:47:17;90.95;;;31.55;;
61638;SDS011;47544;52.484;4.658;2022-12-18T07:47:35;88.32;;;31.30;;
61638;SDS011;47544;52.484;4.658;2022-12-18T07:47:50;90.40;;;31.10;;
61638;SDS011;47544;52.484;4.658;2022-12-18T07:48:09;93.20;;;31.35;;
61638;SDS011;47544;52.484;4.658;2022-12-18T07:48:24;90.47;;;30.95;;
61638;SDS011;47544;52.484;4.658;2022-12-18T07:48:46;86.75;;;30.10;;
61638;SDS011;47544;52.484;4.658;2022-12-18T07:48:58;86.47;;;29.70;;
61638;SDS011;47544;52.484;4.658;2022-12-18T07:49:13;86.03;;;29.60;;
61638;SDS011;47544;52.484;4.658;2022-12-18T07:50:06;88.20;;;30.92;;
61638;SDS011;47544;52.484;4.658;2022-12-18T07:50:24;90.97;;;31.33;;
61638;SDS011;47544;52.484;4.658;2022-12-18T07:52:04;87.60;;;30.92;;
61638;SDS011;47544;52.484;4.658;2022-12-18T07:53:23;84.47;;;31.42;;
61638;SDS011;47544;52.484;4.658;2022-12-18T07:54:07;83.03;;;30.63;;
61638;SDS011;47544;52.484;4.658;2022-12-18T07:55:22;84.55;;;30.80;;
61638;SDS011;47544;52.484;4.658;2022-12-18T07:55:33;83.88;;;30.50;;
61638;SDS011;47544;52.484;4.658;2022-12-18T07:55:54;85.47;;;30.80;;
61638;SDS011;47544;52.484;4.658;2022-12-18T07:56:14;83.35;;;29.80;;
61638;SDS011;47544;52.484;4.658;2022-12-18T07:56:32;77.40;;;30.08;;
61638;SDS011;47544;52.484;4.658;2022-12-18T07:57:41;75.63;;;29.08;;
61638;SDS011;47544;52.484;4.658;2022-12-18T07:58:25;79.25;;;29.27;;
61638;SDS011;47544;52.484;4.658;2022-12-18T07:59:35;81.47;;;29.60;;
61638;SDS011;47544;52.484;4.658;2022-12-18T08:00:00;77.40;;;29.63;;
61638;SDS011;47544;52.484;4.658;2022-12-18T08:42:38;45.55;;;24.60;;
61638;SDS011;47544;52.484;4.658;2022-12-18T08:47:23;38.97;;;21.58;;
61638;SDS011;47544;52.484;4.658;2022-12-18T08:47:48;37.83;;;21.27;;
61638;SDS011;47544;52.484;4.658;2022-12-18T09:25:28;22.63;;;14.48;;
61638;SDS011;47544;52.484;4.658;2022-12-18T09:26:01;24.90;;;15.48;;
61638;SDS011;47544;52.484;4.658;2022-12-18T09:56:06;18.77;;;12.70;;
61638;SDS011;47544;52.484;4.658;2022-12-18T09:56:44;17.95;;;12.27;;
61638;SDS011;47544;52.484;4.658;2022-12-18T09:56:56;18.23;;;12.00;;
61638;SDS011;47544;52.484;4.658;2022-12-18T09:57:14;19.05;;;12.43;;
61638;SDS011;47544;52.484;4.658;2022-12-18T09:57:26;20.58;;;12.70;;
61638;SDS011;47544;52.484;4.658;2022-12-18T09:57:39;20.65;;;12.73;;
61638;SDS011;47544;52.484;4.658;2022-12-18T09:58:00;20.15;;;13.13;;
61638;SDS011;47544;52.484;4.658;2022-12-18T09:58:14;20.10;;;13.05;;
61638;SDS011;47544;52.484;4.658;2022-12-18T09:58:31;19.38;;;12.10;;
61638;SDS011;47544;52.484;4.658;2022-12-18T09:58:45;19.40;;;12.32;;
61638;SDS011;47544;52.484;4.658;2022-12-18T09:58:59;19.48;;;12.82;;
61638;SDS011;47544;52.484;4.658;2022-12-18T09:59:15;19.05;;;12.65;;
61638;SDS011;47544;52.484;4.658;2022-12-18T09:59:30;19.42;;;12.63;;
61638;SDS011;47544;52.484;4.658;2022-12-18T09:59:44;19.20;;;12.48;;
61638;SDS011;47544;52.484;4.658;2022-12-18T10:00:00;19.95;;;12.80;;
61638;SDS011;47544;52.484;4.658;2022-12-18T10:00:16;20.85;;;13.30;;
61638;SDS011;47544;52.484;4.658;2022-12-18T10:00:29;20.00;;;12.90;;
61638;SDS011;47544;52.484;4.658;2022-12-18T10:00:44;19.63;;;12.70;;
61638;SDS011;47544;52.484;4.658;2022-12-18T10:00:57;18.45;;;12.05;;
61638;SDS011;47544;52.484;4.658;2022-12-18T10:01:11;19.02;;;12.63;;
61638;SDS011;47544;52.484;4.658;2022-12-18T10:01:22;19.95;;;13.63;;
61638;SDS011;47544;52.484;4.658;2022-12-18T10:01:34;19.98;;;13.82;;
61638;SDS011;47544;52.484;4.658;2022-12-18T10:01:45;20.23;;;13.93;;
61638;SDS011;47544;52.484;4.658;2022-12-18T10:02:01;20.10;;;13.45;;
61638;SDS011;47544;52.484;4.658;2022-12-18T10:02:24;19.92;;;13.15;;
61638;SDS011;47544;52.484;4.658;2022-12-18T10:03:17;19.90;;;12.68;;
61638;SDS011;47544;52.484;4.658;2022-12-18T10:03:36;20.63;;;12.98;;
61638;SDS011;47544;52.484;4.658;2022-12-18T10:03:47;19.42;;;12.48;;
61638;SDS011;47544;52.484;4.658;2022-12-18T10:04:08;17.63;;;11.50;;
61638;SDS011;47544;52.484;4.658;2022-12-18T10:04:21;18.17;;;12.07;;
61638;SDS011;47544;52.484;4.658;2022-12-18T10:04:35;18.52;;;12.07;;
61638;SDS011;47544;52.484;4.658;2022-12-18T10:04:49;18.67;;;12.18;;
61638;SDS011;47544;52.484;4.658;2022-12-18T10:05:10;18.15;;;12.57;;
61638;SDS011;47544;52.484;4.658;2022-12-18T10:05:29;18.02;;;12.65;;
61638;SDS011;47544;52.484;4.658;2022-12-18T10:05:48;19.20;;;12.38;;
61638;SDS011;47544;52.484;4.658;2022-12-18T10:06:05;18.08;;;11.60;;
61638;SDS011;47544;52.484;4.658;2022-12-18T10:06:18;17.10;;;11.25;;
61638;SDS011;47544;52.484;4.658;2022-12-18T10:06:34;17.42;;;11.57;;
61638;SDS011;47544;52.484;4.658;2022-12-18T10:06:48;17.83;;;11.73;;
61638;SDS011;47544;52.484;4.658;2022-12-18T10:07:01;18.98;;;12.13;;
61638;SDS011;47544;52.484;4.658;2022-12-18T10:07:17;17.50;;;10.77;;
61638;SDS011;47544;52.484;4.658;2022-12-18T10:07:40;17.92;;;11.00;;
61638;SDS011;47544;52.484;4.658;2022-12-18T10:07:55;18.33;;;12.25;;
61638;SDS011;47544;52.484;4.658;2022-12-18T10:08:11;17.98;;;12.20;;
61638;SDS011;47544;52.484;4.658;2022-12-18T10:08:29;17.65;;;11.77;;
61638;SDS011;47544;52.484;4.658;2022-12-18T10:08:46;17.50;;;11.48;;
61638;SDS011;47544;52.484;4.658;2022-12-18T10:09:01;16.80;;;10.65;;
61638;SDS011;47544;52.484;4.658;2022-12-18T10:09:18;17.80;;;11.30;;
61638;SDS011;47544;52.484;4.658;2022-12-18T10:09:37;19.27;;;12.88;;
61638;SDS011;47544;52.484;4.658;2022-12-18T10:10:03;19.73;;;12.73;;
61638;SDS011;47544;52.484;4.658;2022-12-18T10:10:23;17.90;;;12.40;;
61638;SDS011;47544;52.484;4.658;2022-12-18T10:10:40;17.95;;;12.32;;
61638;SDS011;47544;52.484;4.658;2022-12-18T10:11:00;18.52;;;12.05;;
61638;SDS011;47544;52.484;4.658;2022-12-18T10:11:37;17.17;;;11.90;;
61638;SDS011;47544;52.484;4.658;2022-12-18T10:11:53;17.55;;;11.57;;
61638;SDS011;47544;52.484;4.658;2022-12-18T10:12:12;19.05;;;11.98;;
61638;SDS011;47544;52.484;4.658;2022-12-18T10:12:28;18.90;;;11.95;;
61638;SDS011;47544;52.484;4.658;2022-12-18T10:12:44;17.63;;;12.13;;
61638;SDS011;47544;52.484;4.658;2022-12-18T10:13:00;18.17;;;12.35;;
61638;SDS011;47544;52.484;4.658;2022-12-18T10:13:20;18.15;;;11.73;;
61638;SDS011;47544;52.484;4.658;2022-12-18T10:13:37;17.98;;;12.23;;
61638;SDS011;47544;52.484;4.658;2022-12-18T10:13:51;18.75;;;12.55;;
61638;SDS011;47544;52.484;4.658;2022-12-18T10:14:04;18.42;;;11.50;;
61638;SDS011;47544;52.484;4.658;2022-12-18T10:14:18;18.13;;;10.60;;
61638;SDS011;47544;52.484;4.658;2022-12-18T10:14:37;18.65;;;11.65;;
61638;SDS011;47544;52.484;4.658;2022-12-18T10:14:56;18.67;;;12.45;;
61638;SDS011;47544;52.484;4.658;2022-12-18T10:15:11;17.45;;;11.63;;
61638;SDS011;47544;52.484;4.658;2022-12-18T10:15:27;18.70;;;11.10;;
61638;SDS011;47544;52.484;4.658;2022-12-18T10:15:50;19.40;;;12.18;;
61638;SDS011;47544;52.484;4.658;2022-12-18T10:16:10;19.13;;;12.38;;
61638;SDS011;47544;52.484;4.658;2022-12-18T10:16:24;17.85;;;11.38;;
61638;SDS011;47544;52.484;4.658;2022-12-18T10:16:41;16.45;;;11.18;;
61638;SDS011;47544;52.484;4.658;2022-12-18T10:16:58;18.02;;;11.90;;
61638;SDS011;47544;52.484;4.658;2022-12-18T10:17:14;17.42;;;11.13;;
61638;SDS011;47544;52.484;4.658;2022-12-18T10:17:31;17.55;;;11.10;;
61638;SDS011;47544;52.484;4.658;2022-12-18T10:17:49;19.23;;;12.88;;
61638;SDS011;47544;52.484;4.658;2022-12-18T10:18:04;20.17;;;13.07;;
61638;SDS011;47544;52.484;4.658;2022-12-18T10:18:23;20.00;;;12.85;;
61638;SDS011;47544;52.484;4.658;2022-12-18T10:19:10;20.00;;;12.65;;
61638;SDS011;47544;52.484;4.658;2022-12-18T10:19:25;19.50;;;12.80;;
61638;SDS011;47544;52.484;4.658;2022-12-18T10:19:41;19.20;;;12.77;;
61638;SDS011;47544;52.484;4.658;2022-12-18T10:20:00;20.10;;;13.02;;
61638;SDS011;47544;52.484;4.658;2022-12-18T10:20:15;19.55;;;12.95;;
61638;SDS011;47544;52.484;4.658;2022-12-18T10:20:31;18.70;;;12.50;;
61638;SDS011;47544;52.484;4.658;2022-12-18T10:20:45;19.02;;;11.73;;
61638;SDS011;47544;52.484;4.658;2022-12-18T10:20:59;18.95;;;11.60;;
61638;SDS011;47544;52.484;4.658;2022-12-18T10:21:11;18.92;;;12.43;;
61638;SDS011;47544;52.484;4.658;2022-12-18T10:21:30;18.13;;;12.13;;
61638;SDS011;47544;52.484;4.658;2022-12-18T10:21:43;18.75;;;11.93;;
61638;SDS011;47544;52.484;4.658;2022-12-18T10:21:58;19.45;;;12.65;;
61638;SDS011;47544;52.484;4.658;2022-12-18T10:22:15;19.27;;;12.95;;
61638;SDS011;47544;52.484;4.658;2022-12-18T10:22:35;19.00;;;12.73;;
61638;SDS011;47544;52.484;4.658;2022-12-18T10:22:52;18.75;;;12.07;;
61638;SDS011;47544;52.484;4.658;2022-12-18T10:23:09;19.10;;;12.02;;
61638;SDS011;47544;52.484;4.658;2022-12-18T10:23:25;19.30;;;12.98;;
61638;SDS011;47544;52.484;4.658;2022-12-18T10:23:46;19.60;;;13.75;;
61638;SDS011;47544;52.484;4.658;2022-12-18T10:24:08;19.48;;;13.57;;
61638;SDS011;47544;52.484;4.658;2022-12-18T10:24:30;20.55;;;13.15;;
61638;SDS011;47544;52.484;4.658;2022-12-18T10:24:44;19.98;;;13.00;;
61638;SDS011;47544;52.484;4.658;2022-12-18T10:25:03;20.15;;;13.23;;
61638;SDS011;47544;52.484;4.658;2022-12-18T10:25:20;20.85;;;13.85;;
61638;SDS011;47544;52.484;4.658;2022-12-18T10:25:34;19.63;;;13.50;;
61638;SDS011;47544;52.484;4.658;2022-12-18T10:25:49;19.02;;;13.30;;
61638;SDS011;47544;52.484;4.658;2022-12-18T10:26:04;19.02;;;13.45;;
61638;SDS011;47544;52.484;4.658;2022-12-18T10:26:19;19.58;;;13.55;;
61638;SDS011;47544;52.484;4.658;2022-12-18T10:26:30;19.23;;;13.30;;
61638;SDS011;47544;52.484;4.658;2022-12-18T10:26:47;18.88;;;13.00;;
61638;SDS011;47544;52.484;4.658;2022-12-18T10:26:59;19.85;;;13.43;;
61638;SDS011;47544;52.484;4.658;2022-12-18T10:27:32;21.17;;;13.80;;
61638;SDS011;47544;52.484;4.658;2022-12-18T10:27:45;20.70;;;13.80;;
61638;SDS011;47544;52.484;4.658;2022-12-18T10:28:10;19.55;;;13.60;;
61638;SDS011;47544;52.484;4.658;2022-12-18T10:28:22;19.65;;;13.70;;
61638;SDS011;47544;52.484;4.658;2022-12-18T10:28:37;18.75;;;12.80;;
61638;SDS011;47544;52.484;4.658;2022-12-18T10:28:50;19.25;;;13.02;;
61638;SDS011;47544;52.484;4.658;2022-12-18T10:29:04;20.58;;;13.82;;
61638;SDS011;47544;52.484;4.658;2022-12-18T10:29:20;20.90;;;12.93;;
61638;SDS011;47544;52.484;4.658;2022-12-18T10:29:31;21.02;;;12.63;;
61638;SDS011;47544;52.484;4.658;2022-12-18T10:29:42;18.86;;;11.70;;
61638;SDS011;47544;52.484;4.658;2022-12-18T10:29:54;16.42;;;10.07;;
61638;SDS011;47544;52.484;4.658;2022-12-18T10:30:08;16.40;;;9.90;;
61638;SDS011;47544;52.484;4.658;2022-12-18T10:30:23;19.13;;;12.38;;
61638;SDS011;47544;52.484;4.658;2022-12-18T10:30:34;20.52;;;13.18;;
61638;SDS011;47544;52.484;4.658;2022-12-18T10:30:46;20.33;;;13.25;;
61638;SDS011;47544;52.484;4.658;2022-12-18T10:30:57;18.20;;;12.10;;
61638;SDS011;47544;52.484;4.658;2022-12-18T10:31:16;17.67;;;11.75;;
61638;SDS011;47544;52.484;4.658;2022-12-18T10:31:28;19.40;;;13.00;;
61638;SDS011;47544;52.484;4.658;2022-12-18T10:31:39;19.48;;;12.88;;
61638;SDS011;47544;52.484;4.658;2022-12-18T10:31:50;18.95;;;12.35;;
61638;SDS011;47544;52.484;4.658;2022-12-18T10:32:03;18.42;;;12.30;;
61638;SDS011;47544;52.484;4.658;2022-12-18T10:32:15;18.92;;;13.25;;
61638;SDS011;47544;52.484;4.658;2022-12-18T10:32:29;19.65;;;13.43;;
61638;SDS011;47544;52.484;4.658;2022-12-18T10:32:42;19.52;;;13.65;;
61638;SDS011;47544;52.484;4.658;2022-12-18T10:32:53;18.90;;;13.52;;
61638;SDS011;47544;52.484;4.658;2022-12-18T10:33:08;19.13;;;13.27;;
61638;SDS011;47544;52.484;4.658;2022-12-18T10:33:20;19.13;;;13.05;;
61638;SDS011;47544;52.484;4.658;2022-12-18T10:33:32;19.77;;;13.35;;
61638;SDS011;47544;52.484;4.658;2022-12-18T10:33:45;20.42;;;13.35;;
61638;SDS011;47544;52.484;4.658;2022-12-18T10:33:56;20.48;;;12.93;;
61638;SDS011;47544;52.484;4.658;2022-12-18T10:34:09;20.52;;;12.88;;
61638;SDS011;47544;52.484;4.658;2022-12-18T10:34:20;20.50;;;13.38;;
61638;SDS011;47544;52.484;4.658;2022-12-18T10:34:31;21.40;;;13.27;;
61638;SDS011;47544;52.484;4.658;2022-12-18T10:34:44;21.10;;;13.35;;
61638;SDS011;47544;52.484;4.658;2022-12-18T10:34:59;19.73;;;13.15;;
61638;SDS011;47544;52.484;4.658;2022-12-18T10:35:12;18.98;;;12.50;;
61638;SDS011;47544;52.484;4.658;2022-12-18T10:35:26;19.92;;;12.52;;
61638;SDS011;47544;52.484;4.658;2022-12-18T10:35:37;20.15;;;12.77;;
61638;SDS011;47544;52.484;4.658;2022-12-18T10:35:51;19.50;;;13.35;;
61638;SDS011;47544;52.484;4.658;2022-12-18T10:36:03;19.30;;;13.38;;
61638;SDS011;47544;52.484;4.658;2022-12-18T10:36:17;18.75;;;12.25;;
61638;SDS011;47544;52.484;4.658;2022-12-18T10:36:28;17.45;;;11.15;;
61638;SDS011;47544;52.484;4.658;2022-12-18T10:36:41;17.67;;;11.07;;
61638;SDS011;47544;52.484;4.658;2022-12-18T10:36:53;19.02;;;12.70;;
61638;SDS011;47544;52.484;4.658;2022-12-18T10:37:05;21.35;;;14.25;;
61638;SDS011;47544;52.484;4.658;2022-12-18T10:37:17;20.85;;;13.93;;
61638;SDS011;47544;52.484;4.658;2022-12-18T10:37:31;20.27;;;13.80;;
61638;SDS011;47544;52.484;4.658;2022-12-18T10:38:20;19.77;;;13.13;;
61638;SDS011;47544;52.484;4.658;2022-12-18T10:38:34;19.90;;;13.05;;
61638;SDS011;47544;52.484;4.658;2022-12-18T10:38:45;19.65;;;12.70;;
61638;SDS011;47544;52.484;4.658;2022-12-18T10:39:01;19.25;;;12.85;;
61638;SDS011;47544;52.484;4.658;2022-12-18T10:39:25;21.75;;;14.02;;
61638;SDS011;47544;52.484;4.658;2022-12-18T10:39:36;20.45;;;13.38;;
61638;SDS011;47544;52.484;4.658;2022-12-18T10:40:04;20.05;;;13.20;;
61638;SDS011;47544;52.484;4.658;2022-12-18T10:40:20;19.63;;;13.63;;
61638;SDS011;47544;52.484;4.658;2022-12-18T10:40:36;20.98;;;13.90;;
61638;SDS011;47544;52.484;4.658;2022-12-18T10:40:58;20.95;;;13.55;;
61638;SDS011;47544;52.484;4.658;2022-12-18T10:41:25;20.33;;;12.93;;
61638;SDS011;47544;52.484;4.658;2022-12-18T10:41:37;18.40;;;11.93;;
61638;SDS011;47544;52.484;4.658;2022-12-18T10:41:50;17.90;;;11.95;;
61638;SDS011;47544;52.484;4.658;2022-12-18T10:42:09;18.33;;;12.18;;
61638;SDS011;47544;52.484;4.658;2022-12-18T10:42:22;19.25;;;12.50;;
61638;SDS011;47544;52.484;4.658;2022-12-18T10:42:33;19.58;;;12.75;;
61638;SDS011;47544;52.484;4.658;2022-12-18T10:42:59;19.65;;;12.80;;
61638;SDS011;47544;52.484;4.658;2022-12-18T10:43:14;19.02;;;12.63;;
61638;SDS011;47544;52.484;4.658;2022-12-18T10:43:26;19.55;;;13.23;;
61638;SDS011;47544;52.484;4.658;2022-12-18T10:43:53;18.05;;;12.70;;
61638;SDS011;47544;52.484;4.658;2022-12-18T10:44:32;19.90;;;12.60;;
61638;SDS011;47544;52.484;4.658;2022-12-18T10:44:43;19.10;;;12.48;;
61638;SDS011;47544;52.484;4.658;2022-12-18T10:45:00;19.17;;;12.75;;
61638;SDS011;47544;52.484;4.658;2022-12-18T10:45:13;18.95;;;12.38;;
61638;SDS011;47544;52.484;4.658;2022-12-18T10:45:25;19.08;;;11.68;;
61638;SDS011;47544;52.484;4.658;2022-12-18T10:45:38;18.10;;;10.80;;
61638;SDS011;47544;52.484;4.658;2022-12-18T10:46:12;18.85;;;11.75;;
61638;SDS011;47544;52.484;4.658;2022-12-18T10:46:27;19.10;;;12.52;;
61638;SDS011;47544;52.484;4.658;2022-12-18T10:46:38;19.30;;;12.93;;
61638;SDS011;47544;52.484;4.658;2022-12-18T10:47:02;19.50;;;13.68;;
61638;SDS011;47544;52.484;4.658;2022-12-18T10:47:14;20.08;;;14.07;;
61638;SDS011;47544;52.484;4.658;2022-12-18T10:47:27;18.58;;;12.90;;
61638;SDS011;47544;52.484;4.658;2022-12-18T10:47:41;18.27;;;12.23;;
61638;SDS011;47544;52.484;4.658;2022-12-18T10:47:55;18.45;;;12.57;;
61638;SDS011;47544;52.484;4.658;2022-12-18T10:48:17;19.67;;;13.25;;
61638;SDS011;47544;52.484;4.658;2022-12-18T10:48:31;17.58;;;11.15;;
61638;SDS011;47544;52.484;4.658;2022-12-18T10:48:53;15.30;;;9.85;;
61638;SDS011;47544;52.484;4.658;2022-12-18T10:49:05;15.52;;;9.63;;
61638;SDS011;47544;52.484;4.658;2022-12-18T10:49:21;18.45;;;10.95;;
61638;SDS011;47544;52.484;4.658;2022-12-18T10:49:33;19.65;;;11.80;;
61638;SDS011;47544;52.484;4.658;2022-12-18T10:49:49;19.45;;;12.55;;
61638;SDS011;47544;52.484;4.658;2022-12-18T10:50:01;18.40;;;12.40;;
61638;SDS011;47544;52.484;4.658;2022-12-18T10:50:25;16.63;;;12.05;;
61638;SDS011;47544;52.484;4.658;2022-12-18T10:50:42;19.17;;;13.00;;
61638;SDS011;47544;52.484;4.658;2022-12-18T10:51:09;21.15;;;13.73;;
61638;SDS011;47544;52.484;4.658;2022-12-18T10:51:23;20.00;;;13.43;;
61638;SDS011;47544;52.484;4.658;2022-12-18T10:51:36;20.73;;;13.90;;
61638;SDS011;47544;52.484;4.658;2022-12-18T10:51:48;21.80;;;14.00;;
61638;SDS011;47544;52.484;4.658;2022-12-18T10:52:11;21.92;;;13.82;;
61638;SDS011;47544;52.484;4.658;2022-12-18T10:52:25;19.90;;;14.10;;
61638;SDS011;47544;52.484;4.658;2022-12-18T10:52:38;19.55;;;13.93;;
61638;SDS011;47544;52.484;4.658;2022-12-18T10:52:54;19.25;;;13.40;;
61638;SDS011;47544;52.484;4.658;2022-12-18T10:53:19;21.27;;;14.70;;
61638;SDS011;47544;52.484;4.658;2022-12-18T10:53:31;21.58;;;14.48;;
61638;SDS011;47544;52.484;4.658;2022-12-18T10:53:50;20.55;;;13.88;;
61638;SDS011;47544;52.484;4.658;2022-12-18T10:54:14;19.92;;;13.27;;
61638;SDS011;47544;52.484;4.658;2022-12-18T10:54:39;21.35;;;14.25;;
61638;SDS011;47544;52.484;4.658;2022-12-18T10:54:59;21.38;;;14.55;;
61638;SDS011;47544;52.484;4.658;2022-12-18T10:55:15;20.67;;;14.05;;
61638;SDS011;47544;52.484;4.658;2022-12-18T10:55:38;20.63;;;13.98;;
61638;SDS011;47544;52.484;4.658;2022-12-18T10:55:50;20.67;;;14.02;;
61638;SDS011;47544;52.484;4.658;2022-12-18T10:56:05;20.00;;;13.60;;
61638;SDS011;47544;52.484;4.658;2022-12-18T10:56:22;19.20;;;13.55;;
61638;SDS011;47544;52.484;4.658;2022-12-18T10:56:54;19.30;;;13.63;;
61638;SDS011;47544;52.484;4.658;2022-12-18T10:57:34;19.73;;;12.90;;
61638;SDS011;47544;52.484;4.658;2022-12-18T10:57:56;19.88;;;12.93;;
61638;SDS011;47544;52.484;4.658;2022-12-18T10:58:36;20.63;;;13.63;;
61638;SDS011;47544;52.484;4.658;2022-12-18T10:59:02;20.30;;;14.05;;
61638;SDS011;47544;52.484;4.658;2022-12-18T10:59:58;20.17;;;13.90;;
61638;SDS011;47544;52.484;4.658;2022-12-18T11:00:44;20.38;;;13.57;;
61638;SDS011;47544;52.484;4.658;2022-12-18T11:02:50;21.13;;;14.32;;
61638;SDS011;47544;52.484;4.658;2022-12-18T11:04:51;20.27;;;14.38;;
61638;SDS011;47544;52.484;4.658;2022-12-18T11:05:46;21.15;;;14.05;;
61638;SDS011;47544;52.484;4.658;2022-12-18T11:06:07;20.40;;;13.68;;
61638;SDS011;47544;52.484;4.658;2022-12-18T11:06:27;20.70;;;13.73;;
61638;SDS011;47544;52.484;4.658;2022-12-18T11:07:09;18.83;;;12.30;;
61638;SDS011;47544;52.484;4.658;2022-12-18T11:08:43;18.48;;;12.55;;
61638;SDS011;47544;52.484;4.658;2022-12-18T11:10:56;18.88;;;12.85;;
61638;SDS011;47544;52.484;4.658;2022-12-18T11:11:32;20.40;;;13.52;;
61638;SDS011;47544;52.484;4.658;2022-12-18T11:12:33;18.00;;;13.40;;
61638;SDS011;47544;52.484;4.658;2022-12-18T11:13:23;18.48;;;12.52;;
61638;SDS011;47544;52.484;4.658;2022-12-18T11:13:42;18.00;;;11.13;;
61638;SDS011;47544;52.484;4.658;2022-12-18T11:15:20;17.95;;;11.35;;
61638;SDS011;47544;52.484;4.658;2022-12-18T11:15:54;18.70;;;12.35;;
61638;SDS011;47544;52.484;4.658;2022-12-18T11:16:17;18.23;;;12.60;;
61638;SDS011;47544;52.484;4.658;2022-12-18T11:16:36;18.52;;;13.07;;
61638;SDS011;47544;52.484;4.658;2022-12-18T11:16:53;18.60;;;12.30;;
61638;SDS011;47544;52.484;4.658;2022-12-18T11:17:18;18.60;;;12.63;;
61638;SDS011;47544;52.484;4.658;2022-12-18T11:18:32;18.45;;;13.50;;
61638;SDS011;47544;52.484;4.658;2022-12-18T11:19:55;17.77;;;11.85;;
61638;SDS011;47544;52.484;4.658;2022-12-18T11:20:30;19.48;;;12.82;;
61638;SDS011;47544;52.484;4.658;2022-12-18T11:20:48;18.85;;;12.27;;
61638;SDS011;47544;52.484;4.658;2022-12-18T11:21:05;18.00;;;11.90;;
61638;SDS011;47544;52.484;4.658;2022-12-18T11:21:20;17.80;;;11.70;;
61638;SDS011;47544;52.484;4.658;2022-12-18T11:21:31;17.48;;;11.85;;
61638;SDS011;47544;52.484;4.658;2022-12-18T11:21:51;18.45;;;13.05;;
61638;SDS011;47544;52.484;4.658;2022-12-18T11:22:17;18.15;;;13.27;;
61638;SDS011;47544;52.484;4.658;2022-12-18T11:22:36;18.63;;;11.77;;
61638;SDS011;47544;52.484;4.658;2022-12-18T11:23:29;19.67;;;13.45;;
61638;SDS011;47544;52.484;4.658;2022-12-18T11:23:54;19.73;;;13.63;;
61638;SDS011;47544;52.484;4.658;2022-12-18T11:24:15;18.35;;;12.68;;
61638;SDS011;47544;52.484;4.658;2022-12-18T11:24:31;17.90;;;11.60;;
61638;SDS011;47544;52.484;4.658;2022-12-18T11:24:42;18.35;;;11.68;;
61638;SDS011;47544;52.484;4.658;2022-12-18T11:24:55;17.88;;;11.80;;
61638;SDS011;47544;52.484;4.658;2022-12-18T11:25:18;17.90;;;12.40;;
61638;SDS011;47544;52.484;4.658;2022-12-18T11:25:38;19.45;;;13.50;;
61638;SDS011;47544;52.484;4.658;2022-12-18T11:25:55;19.92;;;13.68;;
61638;SDS011;47544;52.484;4.658;2022-12-18T11:26:10;20.50;;;13.48;;